Time;durP1;ratioP1;P1;durP2;ratioP2;P2;SDS_P1;SDS_P2;PMS_P1;PMS_P2;Temp;Humidity;BMP_temperature;BMP_pressure;BME280_temperature;BME280_humidity;BME280_pressure;Samples;Min_cycle;Max_cycle;Signal;HPM_P1;HPM_P2
2022/12/19 00:01:07;;;;;;;37.67;25.63;;;;;;;;;;5111633;28;20467;-76
2022/12/19 00:03:34;;;;;;;42.50;26.97;;;;;;;;;;5100411;28;20444;-75
2022/12/19 00:06:02;;;;;;;42.63;27.53;;;;;;;;;;5085503;28;20499;-74
2022/12/19 00:08:32;;;;;;;41.57;27.20;;;;;;;;;;5070663;28;20457;-75
2022/12/19 00:11:02;;;;;;;48.73;29.43;;;;;;;;;;5071208;28;20924;-76
2022/12/19 00:13:29;;;;;;;42.07;27.87;;;;;;;;;;5070312;28;20448;-75
2022/12/19 00:16:00;;;;;;;45.60;29.07;;;;;;;;;;5090262;28;20494;-75
2022/12/19 00:18:27;;;;;;;43.60;28.60;;;;;;;;;;5090235;28;20447;-75
2022/12/19 00:20:55;;;;;;;46.93;27.60;;;;;;;;;;5090067;28;20458;-75
2022/12/19 00:23:22;;;;;;;46.83;28.60;;;;;;;;;;5089886;28;20540;-75
2022/12/19 00:25:49;;;;;;;44.10;28.57;;;;;;;;;;5090418;28;20469;-75
2022/12/19 00:28:18;;;;;;;44.07;28.70;;;;;;;;;;5090211;28;20803;-75
2022/12/19 00:30:45;;;;;;;44.23;27.93;;;;;;;;;;5091250;28;20447;-74
2022/12/19 00:33:12;;;;;;;50.90;28.83;;;;;;;;;;5091206;28;20436;-74
2022/12/19 00:35:39;;;;;;;44.07;28.87;;;;;;;;;;5091331;28;20482;-74
2022/12/19 00:38:06;;;;;;;44.30;27.23;;;;;;;;;;5090843;28;20452;-74
2022/12/19 00:40:33;;;;;;;43.57;28.80;;;;;;;;;;5090578;28;20451;-74
2022/12/19 00:43:00;;;;;;;48.07;28.07;;;;;;;;;;5089740;28;20443;-74
2022/12/19 00:45:28;;;;;;;42.80;28.80;;;;;;;;;;5091407;28;20466;-75
2022/12/19 00:47:55;;;;;;;49.60;29.77;;;;;;;;;;5098149;28;20458;-75
2022/12/19 00:50:22;;;;;;;48.27;29.33;;;;;;;;;;5102245;28;20439;-74
2022/12/19 00:52:49;;;;;;;45.40;28.00;;;;;;;;;;5099021;28;20440;-75
2022/12/19 00:55:16;;;;;;;46.80;28.93;;;;;;;;;;5097647;28;20479;-73
2022/12/19 00:57:43;;;;;;;43.77;29.00;;;;;;;;;;5097460;28;20467;-74
2022/12/19 01:00:11;;;;;;;41.87;27.90;;;;;;;;;;5094588;28;20446;-74
2022/12/19 01:02:39;;;;;;;45.23;29.23;;;;;;;;;;5090272;28;20460;-73
2022/12/19 01:05:07;;;;;;;41.30;27.30;;;;;;;;;;5082366;28;20443;-73
2022/12/19 01:07:34;;;;;;;47.73;29.50;;;;;;;;;;5093487;28;20480;-75
2022/12/19 01:10:01;;;;;;;44.80;27.80;;;;;;;;;;5097937;28;20443;-74
2022/12/19 01:12:45;;;;;;;46.03;30.13;;;;;;;;;;5096138;28;20450;-76
2022/12/19 01:15:13;;;;;;;39.97;27.13;;;;;;;;;;5096366;28;20459;-74
2022/12/19 01:17:41;;;;;;;41.10;27.20;;;;;;;;;;5099078;28;20566;-76
2022/12/19 01:20:09;;;;;;;41.40;28.43;;;;;;;;;;5097920;28;20440;-77
2022/12/19 01:22:36;;;;;;;46.67;29.10;;;;;;;;;;5100045;28;20448;-74
2022/12/19 01:25:03;;;;;;;49.00;30.23;;;;;;;;;;5100635;28;20450;-76
2022/12/19 01:27:30;;;;;;;47.17;28.70;;;;;;;;;;5095015;28;20475;-75
2022/12/19 01:29:57;;;;;;;46.53;29.70;;;;;;;;;;5081884;28;20471;-74
2022/12/19 01:32:24;;;;;;;42.43;29.50;;;;;;;;;;5075414;28;20451;-75
2022/12/19 01:34:52;;;;;;;45.20;29.07;;;;;;;;;;5072694;28;20472;-76
2022/12/19 01:37:20;;;;;;;46.70;30.03;;;;;;;;;;5073242;28;20460;-75
2022/12/19 01:39:47;;;;;;;45.20;30.03;;;;;;;;;;5073362;28;20441;-75
2022/12/19 01:42:15;;;;;;;46.60;29.40;;;;;;;;;;5073179;28;20473;-74
2022/12/19 01:44:57;;;;;;;46.67;28.50;;;;;;;;;;5072529;28;20479;-74
2022/12/19 01:47:24;;;;;;;49.60;30.80;;;;;;;;;;5072926;28;20452;-74
2022/12/19 01:49:53;;;;;;;47.70;29.83;;;;;;;;;;5073081;28;20431;-74
2022/12/19 01:52:20;;;;;;;47.03;29.77;;;;;;;;;;5072532;28;20448;-74
2022/12/19 01:54:47;;;;;;;47.23;28.80;;;;;;;;;;5072564;28;20475;-74
2022/12/19 01:57:17;;;;;;;46.87;30.63;;;;;;;;;;5072624;28;20460;-74
2022/12/19 01:59:46;;;;;;;51.03;31.83;;;;;;;;;;5072854;28;20417;-75
2022/12/19 02:02:14;;;;;;;48.80;30.87;;;;;;;;;;5072687;28;20944;-74
2022/12/19 02:04:46;;;;;;;44.93;31.17;;;;;;;;;;5072302;28;20436;-77
2022/12/19 02:07:14;;;;;;;47.90;31.87;;;;;;;;;;5072304;28;20559;-74
2022/12/19 02:09:42;;;;;;;50.83;32.60;;;;;;;;;;5071444;28;20452;-74
2022/12/19 02:12:09;;;;;;;46.67;31.47;;;;;;;;;;5071559;28;20448;-75
2022/12/19 02:14:36;;;;;;;49.20;31.47;;;;;;;;;;5070467;28;20459;-75
2022/12/19 02:17:07;;;;;;;50.13;31.73;;;;;;;;;;5071025;28;21059;-74
2022/12/19 02:20:05;;;;;;;49.83;31.60;;;;;;;;;;5071051;28;20908;-74
2022/12/19 02:22:38;;;;;;;49.17;31.70;;;;;;;;;;4988829;28;20584;-74
2022/12/19 02:25:27;;;;;;;48.90;32.87;;;;;;;;;;5055374;28;20440;-76
2022/12/19 02:28:05;;;;;;;46.30;32.10;;;;;;;;;;5071139;28;20464;-76
2022/12/19 02:30:41;;;;;;;48.23;33.50;;;;;;;;;;5071719;28;20448;-76
2022/12/19 02:33:12;;;;;;;50.70;33.50;;;;;;;;;;5070868;28;20896;-75
2022/12/19 02:35:42;;;;;;;50.60;34.70;;;;;;;;;;5071433;28;20827;-74
2022/12/19 02:38:12;;;;;;;49.67;34.10;;;;;;;;;;5071472;28;20452;-76
2022/12/19 02:40:42;;;;;;;53.40;34.90;;;;;;;;;;5071612;28;20799;-75
2022/12/19 02:43:09;;;;;;;49.77;32.73;;;;;;;;;;5070634;28;20441;-75
2022/12/19 02:45:38;;;;;;;51.20;33.53;;;;;;;;;;5070643;28;20819;-74
2022/12/19 02:48:06;;;;;;;51.33;33.27;;;;;;;;;;5071184;28;20819;-76
2022/12/19 02:50:37;;;;;;;50.00;34.23;;;;;;;;;;5070841;28;20468;-76
2022/12/19 02:53:05;;;;;;;47.97;32.80;;;;;;;;;;5070392;28;20451;-74
2022/12/19 02:55:34;;;;;;;52.17;32.47;;;;;;;;;;5070879;28;20534;-77
2022/12/19 02:58:22;;;;;;;52.37;34.00;;;;;;;;;;5071068;28;20448;-75
2022/12/19 03:00:55;;;;;;;54.07;33.77;;;;;;;;;;5071234;28;20432;-74
2022/12/19 03:03:23;;;;;;;52.87;32.13;;;;;;;;;;5070126;28;20810;-75
2022/12/19 03:05:56;;;;;;;49.50;32.93;;;;;;;;;;5078828;28;20435;-76
2022/12/19 03:08:25;;;;;;;49.50;34.00;;;;;;;;;;5075241;28;1039455;-74
2022/12/19 03:10:55;;;;;;;51.13;34.50;;;;;;;;;;5112054;28;20874;-75
2022/12/19 03:13:24;;;;;;;51.60;33.47;;;;;;;;;;5111682;28;20450;-75
2022/12/19 03:15:53;;;;;;;50.53;33.00;;;;;;;;;;5111722;28;20486;-73
2022/12/19 03:18:20;;;;;;;43.80;31.23;;;;;;;;;;5112137;28;20449;-75
2022/12/19 03:20:49;;;;;;;50.27;34.70;;;;;;;;;;5111856;28;20446;-75
2022/12/19 03:23:16;;;;;;;50.57;32.20;;;;;;;;;;5111772;28;20438;-75
2022/12/19 03:25:44;;;;;;;53.60;33.93;;;;;;;;;;5112204;28;20942;-74
2022/12/19 03:28:12;;;;;;;47.30;32.87;;;;;;;;;;5112820;28;20809;-75
2022/12/19 03:30:40;;;;;;;48.77;32.70;;;;;;;;;;5111408;28;20438;-75
2022/12/19 03:33:09;;;;;;;48.50;33.47;;;;;;;;;;5110927;28;20957;-75
2022/12/19 03:35:37;;;;;;;47.17;31.67;;;;;;;;;;5111405;28;20490;-75
2022/12/19 03:38:05;;;;;;;48.63;33.87;;;;;;;;;;5111855;28;20439;-75
2022/12/19 03:40:33;;;;;;;48.50;31.87;;;;;;;;;;5112257;28;20950;-74
2022/12/19 03:43:09;;;;;;;50.07;33.27;;;;;;;;;;5112230;28;20500;-74
2022/12/19 03:45:43;;;;;;;50.83;33.70;;;;;;;;;;5112109;28;20898;-74
2022/12/19 03:48:13;;;;;;;50.50;31.40;;;;;;;;;;5113049;28;20430;-74
2022/12/19 03:50:45;;;;;;;47.17;32.17;;;;;;;;;;5114099;28;20930;-74
2022/12/19 03:53:16;;;;;;;50.50;31.73;;;;;;;;;;5112380;28;20957;-75
2022/12/19 03:55:47;;;;;;;49.63;31.50;;;;;;;;;;5111343;28;20458;-75
2022/12/19 03:58:18;;;;;;;49.67;33.37;;;;;;;;;;5116068;28;20424;-75
2022/12/19 04:00:47;;;;;;;45.57;30.63;;;;;;;;;;5116887;28;20518;-74
2022/12/19 04:03:16;;;;;;;46.70;31.13;;;;;;;;;;5111345;28;20475;-75
2022/12/19 04:05:44;;;;;;;49.10;30.73;;;;;;;;;;5111383;28;20435;-76
2022/12/19 04:08:12;;;;;;;42.93;30.80;;;;;;;;;;5110908;28;20826;-76
2022/12/19 04:10:42;;;;;;;68.37;43.83;;;;;;;;;;5111062;28;20843;-75
2022/12/19 04:13:11;;;;;;;89.13;54.33;;;;;;;;;;5110467;28;20430;-74
2022/12/19 04:15:42;;;;;;;45.97;29.93;;;;;;;;;;5110807;28;20965;-76
2022/12/19 04:18:11;;;;;;;43.10;27.70;;;;;;;;;;5110841;28;20420;-74
2022/12/19 04:20:41;;;;;;;44.47;29.33;;;;;;;;;;5110752;28;20446;-75
2022/12/19 04:23:12;;;;;;;47.10;29.90;;;;;;;;;;5110199;28;21264;-75
2022/12/19 04:25:41;;;;;;;44.30;29.47;;;;;;;;;;5110776;28;20880;-74
2022/12/19 04:28:10;;;;;;;44.93;28.97;;;;;;;;;;5110898;28;20450;-75
2022/12/19 04:30:38;;;;;;;46.43;30.10;;;;;;;;;;5110759;28;20443;-76
2022/12/19 04:33:05;;;;;;;46.20;28.70;;;;;;;;;;5109876;28;20479;-75
2022/12/19 04:35:32;;;;;;;46.43;28.37;;;;;;;;;;5110463;28;20486;-74
2022/12/19 04:38:01;;;;;;;46.27;29.57;;;;;;;;;;5110584;28;20446;-77
2022/12/19 04:40:28;;;;;;;43.53;29.00;;;;;;;;;;5110673;28;20447;-76
2022/12/19 04:42:55;;;;;;;45.80;29.03;;;;;;;;;;5110022;28;20427;-75
2022/12/19 04:45:22;;;;;;;40.13;27.13;;;;;;;;;;5123298;28;20977;-76
2022/12/19 04:47:49;;;;;;;42.70;28.60;;;;;;;;;;5122694;28;20465;-75
2022/12/19 04:50:16;;;;;;;43.10;28.77;;;;;;;;;;5118656;28;20965;-75
2022/12/19 04:52:44;;;;;;;46.93;28.73;;;;;;;;;;5113366;28;20480;-76
2022/12/19 04:55:12;;;;;;;44.67;29.27;;;;;;;;;;5111022;28;20458;-77
2022/12/19 04:57:39;;;;;;;45.20;30.07;;;;;;;;;;5110538;28;20466;-75
2022/12/19 05:00:07;;;;;;;53.43;28.63;;;;;;;;;;5110616;28;20443;-75
2022/12/19 05:02:34;;;;;;;47.73;30.87;;;;;;;;;;5110392;28;20489;-75
2022/12/19 05:05:01;;;;;;;46.13;28.90;;;;;;;;;;5110471;28;20450;-75
2022/12/19 05:07:28;;;;;;;46.43;29.00;;;;;;;;;;5110277;28;20475;-75
2022/12/19 05:09:55;;;;;;;49.03;31.20;;;;;;;;;;5110385;28;20799;-75
2022/12/19 05:12:24;;;;;;;50.77;30.27;;;;;;;;;;5110500;28;20522;-75
2022/12/19 05:14:51;;;;;;;50.63;30.13;;;;;;;;;;5109737;28;20449;-75
2022/12/19 05:17:18;;;;;;;47.60;28.93;;;;;;;;;;5110187;28;20851;-75
2022/12/19 05:19:45;;;;;;;46.13;28.57;;;;;;;;;;5110159;28;20934;-75
2022/12/19 05:22:12;;;;;;;46.90;28.10;;;;;;;;;;5110558;28;20497;-76
2022/12/19 05:24:39;;;;;;;44.90;29.77;;;;;;;;;;5110475;28;20442;-75
2022/12/19 05:27:06;;;;;;;46.00;27.90;;;;;;;;;;5110452;28;20455;-74
2022/12/19 05:29:35;;;;;;;47.63;29.50;;;;;;;;;;5110760;28;20435;-75
2022/12/19 05:32:02;;;;;;;47.90;28.87;;;;;;;;;;5110482;28;20447;-75
2022/12/19 05:34:29;;;;;;;50.90;29.60;;;;;;;;;;5110156;28;20443;-75
2022/12/19 05:36:56;;;;;;;47.50;28.40;;;;;;;;;;5094728;28;20477;-75
2022/12/19 05:39:23;;;;;;;40.80;28.03;;;;;;;;;;5090007;28;20453;-74
2022/12/19 05:41:50;;;;;;;41.67;27.97;;;;;;;;;;5069753;28;20448;-75
2022/12/19 05:44:17;;;;;;;45.50;28.03;;;;;;;;;;5069017;28;20456;-75
2022/12/19 05:46:46;;;;;;;42.13;28.93;;;;;;;;;;5087346;28;21001;-74
2022/12/19 05:49:13;;;;;;;45.90;28.90;;;;;;;;;;5089753;28;20455;-75
2022/12/19 05:51:40;;;;;;;43.13;28.00;;;;;;;;;;5089720;28;20447;-75
2022/12/19 05:54:07;;;;;;;47.57;29.03;;;;;;;;;;5091788;28;20463;-75
2022/12/19 05:56:34;;;;;;;44.67;28.97;;;;;;;;;;5093051;28;20488;-75
2022/12/19 05:59:01;;;;;;;46.30;29.10;;;;;;;;;;5093468;28;20454;-76
2022/12/19 06:01:29;;;;;;;48.13;28.50;;;;;;;;;;5093688;28;20548;-75
2022/12/19 06:03:57;;;;;;;49.47;30.30;;;;;;;;;;5093078;28;20883;-75
2022/12/19 06:06:25;;;;;;;50.40;30.23;;;;;;;;;;5093189;28;20852;-75
2022/12/19 06:08:53;;;;;;;44.50;28.73;;;;;;;;;;5093339;28;20519;-75
2022/12/19 06:11:21;;;;;;;46.67;30.87;;;;;;;;;;5094049;28;20524;-75
2022/12/19 06:13:48;;;;;;;53.87;31.20;;;;;;;;;;5092832;28;20888;-75
2022/12/19 06:16:16;;;;;;;48.83;29.20;;;;;;;;;;5094165;28;21242;-76
2022/12/19 06:18:44;;;;;;;52.63;30.33;;;;;;;;;;5093212;28;20528;-76
2022/12/19 06:21:13;;;;;;;43.90;29.30;;;;;;;;;;5100994;28;20447;-74
2022/12/19 06:23:40;;;;;;;40.30;26.53;;;;;;;;;;5109220;28;20474;-75
2022/12/19 06:26:08;;;;;;;47.03;28.47;;;;;;;;;;5096473;28;20456;-74
2022/12/19 06:28:35;;;;;;;44.80;27.23;;;;;;;;;;5082519;28;20453;-74
2022/12/19 06:31:04;;;;;;;46.90;28.23;;;;;;;;;;5072710;28;20441;-76
2022/12/19 06:33:32;;;;;;;47.83;29.30;;;;;;;;;;5072193;28;20437;-75
2022/12/19 06:35:59;;;;;;;45.33;28.03;;;;;;;;;;5084840;28;20464;-76
2022/12/19 06:38:29;;;;;;;48.27;28.43;;;;;;;;;;5103324;28;20451;-77
2022/12/19 06:43:41;;;;;;;43.40;28.33;;;;;;;;;;5093914;28;20407;-76
2022/12/19 06:46:08;;;;;;;50.33;30.20;;;;;;;;;;5092333;28;20962;-75
2022/12/19 06:48:35;;;;;;;47.57;28.43;;;;;;;;;;5090337;28;20453;-74
2022/12/19 06:51:02;;;;;;;44.80;28.50;;;;;;;;;;5090457;28;20474;-78
2022/12/19 06:53:31;;;;;;;45.77;29.43;;;;;;;;;;5089912;28;20531;-74
2022/12/19 06:55:59;;;;;;;44.77;27.70;;;;;;;;;;5090239;28;20468;-75
2022/12/19 06:58:26;;;;;;;46.10;28.17;;;;;;;;;;5089888;28;20451;-77
2022/12/19 07:00:53;;;;;;;47.20;29.40;;;;;;;;;;5090324;28;20452;-77
2022/12/19 07:03:22;;;;;;;50.10;30.20;;;;;;;;;;5090155;28;20455;-75
2022/12/19 07:05:49;;;;;;;44.73;29.13;;;;;;;;;;5088719;28;20937;-75
2022/12/19 07:08:16;;;;;;;43.70;29.23;;;;;;;;;;5090004;28;20455;-76
2022/12/19 07:10:45;;;;;;;52.23;28.50;;;;;;;;;;5090896;28;20452;-76
2022/12/19 07:13:12;;;;;;;44.20;28.67;;;;;;;;;;5083836;28;20455;-75
2022/12/19 07:15:39;;;;;;;52.13;30.70;;;;;;;;;;5077839;28;20444;-75
2022/12/19 07:18:07;;;;;;;44.60;29.07;;;;;;;;;;5070931;28;20610;-76
2022/12/19 07:20:35;;;;;;;50.73;30.10;;;;;;;;;;5069953;28;20449;-76
2022/12/19 07:23:06;;;;;;;45.47;28.57;;;;;;;;;;5069120;28;20967;-77
2022/12/19 07:25:33;;;;;;;48.50;28.07;;;;;;;;;;5069758;28;20433;-75
2022/12/19 07:28:01;;;;;;;57.23;28.73;;;;;;;;;;5069464;28;20437;-75
2022/12/19 07:30:28;;;;;;;43.73;27.90;;;;;;;;;;5068878;28;20437;-76
2022/12/19 07:32:55;;;;;;;49.27;30.43;;;;;;;;;;5068339;28;20441;-76
2022/12/19 07:35:23;;;;;;;46.47;29.00;;;;;;;;;;5069088;28;20446;-75
2022/12/19 07:37:50;;;;;;;50.83;30.50;;;;;;;;;;5069334;28;20493;-78
2022/12/19 07:40:17;;;;;;;40.23;26.67;;;;;;;;;;5068232;28;20790;-74
2022/12/19 07:42:44;;;;;;;50.13;29.60;;;;;;;;;;5068110;28;20459;-77
2022/12/19 07:45:13;;;;;;;45.23;30.00;;;;;;;;;;5068671;28;20456;-77
2022/12/19 07:47:40;;;;;;;49.57;30.40;;;;;;;;;;5068397;28;20469;-77
2022/12/19 07:50:07;;;;;;;52.13;30.90;;;;;;;;;;5068589;28;20445;-76
2022/12/19 07:52:34;;;;;;;48.77;29.80;;;;;;;;;;5068666;28;20833;-76
2022/12/19 07:55:01;;;;;;;44.93;29.20;;;;;;;;;;5069639;28;20452;-75
2022/12/19 07:57:28;;;;;;;47.03;29.60;;;;;;;;;;5068415;28;20482;-76
2022/12/19 07:59:55;;;;;;;44.53;28.50;;;;;;;;;;5068817;28;20917;-75
2022/12/19 08:02:23;;;;;;;48.83;29.10;;;;;;;;;;5069675;28;20443;-75
2022/12/19 08:04:50;;;;;;;47.07;30.27;;;;;;;;;;5070715;28;20454;-74
2022/12/19 08:07:18;;;;;;;42.70;27.77;;;;;;;;;;5070592;28;20479;-75
2022/12/19 08:09:45;;;;;;;48.40;30.97;;;;;;;;;;5090615;28;20451;-75
2022/12/19 08:12:12;;;;;;;46.33;29.40;;;;;;;;;;5079573;28;20445;-77
2022/12/19 08:14:39;;;;;;;44.37;27.40;;;;;;;;;;5092315;28;20937;-76
2022/12/19 08:17:06;;;;;;;46.53;28.73;;;;;;;;;;5090565;28;21002;-76
2022/12/19 08:19:34;;;;;;;49.30;28.80;;;;;;;;;;5088841;28;20441;-75
2022/12/19 08:22:01;;;;;;;51.63;29.00;;;;;;;;;;5088293;28;20430;-76
2022/12/19 08:24:29;;;;;;;44.67;28.77;;;;;;;;;;5087642;28;20445;-77
2022/12/19 08:26:56;;;;;;;41.53;26.80;;;;;;;;;;5088345;28;20467;-75
2022/12/19 08:29:24;;;;;;;50.47;29.30;;;;;;;;;;5106298;28;20527;-76
2022/12/19 08:31:51;;;;;;;42.67;26.93;;;;;;;;;;5109359;28;20451;-78
2022/12/19 08:34:18;;;;;;;47.80;27.83;;;;;;;;;;5111251;28;20448;-76
2022/12/19 08:36:46;;;;;;;47.63;28.30;;;;;;;;;;5109138;28;20494;-75
2022/12/19 08:39:13;;;;;;;47.50;26.17;;;;;;;;;;5108478;28;20436;-75
2022/12/19 08:41:40;;;;;;;41.60;26.17;;;;;;;;;;5109377;28;20447;-76
2022/12/19 08:44:07;;;;;;;41.90;26.70;;;;;;;;;;5108039;28;20528;-77
2022/12/19 08:46:34;;;;;;;44.70;28.73;;;;;;;;;;5108550;28;20471;-77
2022/12/19 08:49:01;;;;;;;46.60;30.00;;;;;;;;;;5110206;28;20443;-77
2022/12/19 08:51:28;;;;;;;43.97;29.80;;;;;;;;;;5108453;28;20444;-77
2022/12/19 08:53:57;;;;;;;42.17;26.67;;;;;;;;;;5107971;28;20444;-79
2022/12/19 08:56:24;;;;;;;44.43;27.93;;;;;;;;;;5111137;28;20469;-75
2022/12/19 08:58:52;;;;;;;43.17;27.07;;;;;;;;;;5113300;28;20448;-77
2022/12/19 09:01:19;;;;;;;41.00;26.80;;;;;;;;;;5113042;28;20440;-78
2022/12/19 09:03:46;;;;;;;37.90;25.50;;;;;;;;;;5111695;28;20542;-75
2022/12/19 09:06:14;;;;;;;39.53;25.87;;;;;;;;;;5109864;28;20467;-78
2022/12/19 09:08:42;;;;;;;46.43;26.50;;;;;;;;;;5109578;28;20895;-76
2022/12/19 09:11:12;;;;;;;41.53;27.07;;;;;;;;;;5109220;28;20469;-75
2022/12/19 09:13:40;;;;;;;46.33;27.90;;;;;;;;;;5107839;28;20431;-76
2022/12/19 09:16:08;;;;;;;50.17;27.13;;;;;;;;;;5110700;28;20465;-77
2022/12/19 09:18:35;;;;;;;42.97;26.90;;;;;;;;;;5110128;28;20474;-77
2022/12/19 09:21:02;;;;;;;46.70;27.77;;;;;;;;;;5091635;28;20446;-76
2022/12/19 09:23:30;;;;;;;42.30;26.57;;;;;;;;;;5089366;28;20450;-77
2022/12/19 09:25:59;;;;;;;40.83;25.37;;;;;;;;;;5089269;28;20590;-75
2022/12/19 09:28:27;;;;;;;41.13;27.87;;;;;;;;;;5089716;28;20456;-77
2022/12/19 09:30:58;;;;;;;45.50;28.20;;;;;;;;;;5092619;28;20454;-77
2022/12/19 09:33:25;;;;;;;37.80;26.00;;;;;;;;;;5093771;28;20456;-76
2022/12/19 09:35:52;;;;;;;42.40;27.37;;;;;;;;;;5092223;28;20439;-76
2022/12/19 09:38:19;;;;;;;44.43;28.10;;;;;;;;;;5086592;28;21395;-74
2022/12/19 09:40:53;;;;;;;42.90;28.33;;;;;;;;;;5092252;28;20439;-75
2022/12/19 09:43:26;;;;;;;41.57;25.30;;;;;;;;;;5092356;28;21015;-77
2022/12/19 09:45:58;;;;;;;39.70;25.53;;;;;;;;;;5092484;28;21087;-77
2022/12/19 09:48:25;;;;;;;42.37;26.63;;;;;;;;;;5092268;28;20450;-77
2022/12/19 09:50:57;;;;;;;44.73;26.27;;;;;;;;;;5092775;28;20568;-77
2022/12/19 09:53:26;;;;;;;45.37;28.63;;;;;;;;;;5092728;28;20435;-77
2022/12/19 09:55:54;;;;;;;43.30;26.77;;;;;;;;;;5091503;28;20525;-77
2022/12/19 09:58:30;;;;;;;40.80;25.83;;;;;;;;;;5095383;28;20481;-75
2022/12/19 10:01:00;;;;;;;41.47;28.60;;;;;;;;;;5093035;28;20453;-77
2022/12/19 10:03:29;;;;;;;44.60;28.17;;;;;;;;;;5092258;28;20506;-76
2022/12/19 10:05:58;;;;;;;44.50;26.73;;;;;;;;;;5083485;28;20844;-76
2022/12/19 10:08:30;;;;;;;45.60;27.83;;;;;;;;;;5086520;28;20458;-78
2022/12/19 10:11:05;;;;;;;38.37;26.53;;;;;;;;;;5072086;28;20483;-76
2022/12/19 10:13:37;;;;;;;43.17;28.03;;;;;;;;;;5073092;28;20427;-77
2022/12/19 10:16:08;;;;;;;41.23;27.87;;;;;;;;;;5093783;28;20459;-77
2022/12/19 10:18:42;;;;;;;38.03;26.43;;;;;;;;;;5093285;28;20532;-76
2022/12/19 10:21:12;;;;;;;42.30;28.47;;;;;;;;;;5093996;28;20443;-77
2022/12/19 10:23:52;;;;;;;42.10;27.77;;;;;;;;;;5091978;28;20468;-77
2022/12/19 10:26:21;;;;;;;40.00;26.50;;;;;;;;;;5092608;28;20470;-76
2022/12/19 10:28:55;;;;;;;41.90;26.90;;;;;;;;;;5092004;28;20453;-75
2022/12/19 10:31:28;;;;;;;37.70;26.30;;;;;;;;;;5091564;28;20430;-76
2022/12/19 10:33:58;;;;;;;41.77;26.70;;;;;;;;;;5076918;28;20454;-78
2022/12/19 10:36:25;;;;;;;41.37;27.70;;;;;;;;;;5084156;28;20471;-77
2022/12/19 10:38:57;;;;;;;35.63;26.40;;;;;;;;;;5077527;28;20480;-77
2022/12/19 10:41:28;;;;;;;42.13;25.97;;;;;;;;;;5092664;28;20505;-78
2022/12/19 10:43:58;;;;;;;37.63;26.30;;;;;;;;;;5092425;28;20439;-75
2022/12/19 10:46:32;;;;;;;37.83;25.03;;;;;;;;;;5091928;28;20521;-74
2022/12/19 10:48:59;;;;;;;40.00;25.07;;;;;;;;;;5093489;28;20427;-77
2022/12/19 10:51:28;;;;;;;36.80;26.33;;;;;;;;;;5091620;28;20446;-76
2022/12/19 10:53:56;;;;;;;36.33;26.87;;;;;;;;;;5090639;28;20446;-76
2022/12/19 10:56:24;;;;;;;37.83;25.77;;;;;;;;;;5091966;28;20835;-77
2022/12/19 10:58:56;;;;;;;39.47;25.87;;;;;;;;;;5091392;28;20479;-78
2022/12/19 11:01:25;;;;;;;42.13;26.60;;;;;;;;;;5090913;28;20606;-76
2022/12/19 11:03:55;;;;;;;41.60;26.37;;;;;;;;;;5090108;28;20444;-77
2022/12/19 11:06:43;;;;;;;36.77;25.77;;;;;;;;;;5091272;28;20953;-77
2022/12/19 11:09:17;;;;;;;41.73;27.40;;;;;;;;;;5084461;28;20455;-77
2022/12/19 11:11:45;;;;;;;40.10;25.90;;;;;;;;;;5111087;28;20460;-77
2022/12/19 11:14:21;;;;;;;42.57;27.40;;;;;;;;;;5103600;28;20448;-77
2022/12/19 11:16:48;;;;;;;37.20;26.97;;;;;;;;;;5089363;28;20487;-76
2022/12/19 11:19:27;;;;;;;43.20;27.03;;;;;;;;;;5076336;28;20894;-76
2022/12/19 11:21:54;;;;;;;44.03;29.70;;;;;;;;;;5091165;28;20446;-76
2022/12/19 11:24:23;;;;;;;39.53;27.60;;;;;;;;;;5089379;28;20451;-78
2022/12/19 11:26:51;;;;;;;38.60;27.70;;;;;;;;;;5090175;28;20514;-75
2022/12/19 11:29:20;;;;;;;43.50;29.03;;;;;;;;;;5089410;28;20443;-75
2022/12/19 11:31:48;;;;;;;42.60;28.40;;;;;;;;;;5088013;28;20448;-77
2022/12/19 11:34:18;;;;;;;42.33;31.17;;;;;;;;;;5088948;28;20443;-76
2022/12/19 11:36:50;;;;;;;41.80;31.33;;;;;;;;;;5089412;28;20565;-77
2022/12/19 11:39:19;;;;;;;39.63;28.47;;;;;;;;;;5088820;28;20571;-76
2022/12/19 11:41:49;;;;;;;39.27;28.73;;;;;;;;;;5088964;28;20448;-76
2022/12/19 11:44:23;;;;;;;36.47;27.50;;;;;;;;;;5088172;28;20435;-77
2022/12/19 11:46:53;;;;;;;38.53;28.20;;;;;;;;;;5088961;28;20471;-76
2022/12/19 11:49:25;;;;;;;36.50;28.00;;;;;;;;;;5088691;28;20471;-76
2022/12/19 11:51:56;;;;;;;43.17;29.10;;;;;;;;;;5088122;28;20441;-77
2022/12/19 11:54:26;;;;;;;35.47;28.63;;;;;;;;;;5088165;28;20969;-75
2022/12/19 11:56:53;;;;;;;39.10;30.20;;;;;;;;;;5088328;28;20461;-76
2022/12/19 11:59:22;;;;;;;35.77;27.50;;;;;;;;;;5088916;28;20486;-75
2022/12/19 12:02:00;;;;;;;34.40;27.47;;;;;;;;;;5089232;28;20451;-77
2022/12/19 12:04:48;;;;;;;34.27;27.70;;;;;;;;;;5088552;28;20444;-76
2022/12/19 12:07:16;;;;;;;33.90;25.70;;;;;;;;;;5088355;28;20476;-75
2022/12/19 12:09:45;;;;;;;35.63;25.93;;;;;;;;;;5089113;28;20447;-76
2022/12/19 12:12:19;;;;;;;35.77;26.80;;;;;;;;;;5088932;28;20471;-76
2022/12/19 12:14:51;;;;;;;35.90;27.83;;;;;;;;;;5093358;28;20459;-77
2022/12/19 12:17:36;;;;;;;35.57;27.30;;;;;;;;;;5089962;28;20526;-76
2022/12/19 12:20:09;;;;;;;39.30;28.63;;;;;;;;;;5090541;28;20438;-78
2022/12/19 12:22:56;;;;;;;36.90;28.13;;;;;;;;;;5089747;28;20764;-75
2022/12/19 12:25:30;;;;;;;34.67;26.80;;;;;;;;;;5088311;28;20443;-76
2022/12/19 12:28:02;;;;;;;34.80;28.40;;;;;;;;;;5089417;28;20475;-77
2022/12/19 12:30:34;;;;;;;39.23;28.33;;;;;;;;;;5089976;28;20544;-77
2022/12/19 12:33:06;;;;;;;37.70;28.77;;;;;;;;;;5089325;28;20447;-74
2022/12/19 12:35:35;;;;;;;36.87;29.40;;;;;;;;;;5089462;28;20455;-76
2022/12/19 12:38:10;;;;;;;37.30;28.70;;;;;;;;;;5089887;28;20480;-76
2022/12/19 12:40:49;;;;;;;46.87;29.50;;;;;;;;;;5087904;28;20443;-77
2022/12/19 12:43:23;;;;;;;36.67;29.57;;;;;;;;;;5087188;28;20497;-77
2022/12/19 12:45:50;;;;;;;37.63;27.40;;;;;;;;;;5088600;28;20428;-77
2022/12/19 12:48:21;;;;;;;34.83;28.53;;;;;;;;;;5088468;28;20445;-76
2022/12/19 12:50:49;;;;;;;34.80;27.70;;;;;;;;;;5088490;28;20451;-76
2022/12/19 12:53:20;;;;;;;38.07;27.40;;;;;;;;;;5088303;28;20555;-75
2022/12/19 12:55:48;;;;;;;33.07;27.40;;;;;;;;;;5088164;28;20437;-76
2022/12/19 12:58:33;;;;;;;38.53;28.63;;;;;;;;;;5087953;28;21006;-75
2022/12/19 13:01:09;;;;;;;34.53;27.67;;;;;;;;;;5088115;28;20446;-78
2022/12/19 13:03:36;;;;;;;34.87;26.07;;;;;;;;;;5091968;28;20777;-75
2022/12/19 13:06:07;;;;;;;42.10;27.27;;;;;;;;;;5093185;28;20462;-76
2022/12/19 13:08:40;;;;;;;39.97;25.73;;;;;;;;;;5092360;28;20458;-77
2022/12/19 13:12:58;;;;;;;30.13;26.27;;;;;;;;;;5092441;28;20980;-77
2022/12/19 13:13:59;;;;;;;34.60;28.00;;;;;;;;;;5092315;28;20464;-76
2022/12/19 13:16:45;;;;;;;34.80;28.87;;;;;;;;;;5094105;28;20470;-75
2022/12/19 13:19:15;;;;;;;36.70;27.40;;;;;;;;;;5092463;28;20507;-76
2022/12/19 13:21:57;;;;;;;34.63;27.80;;;;;;;;;;5092304;28;20447;-76
2022/12/19 13:24:25;;;;;;;36.23;28.33;;;;;;;;;;5091420;28;20438;-76
2022/12/19 13:26:53;;;;;;;35.67;28.43;;;;;;;;;;5092641;28;20459;-77
2022/12/19 13:29:30;;;;;;;38.07;29.00;;;;;;;;;;5092374;28;20448;-77
2022/12/19 13:32:11;;;;;;;35.63;27.57;;;;;;;;;;5092321;28;20433;-77
2022/12/19 13:34:38;;;;;;;41.20;28.97;;;;;;;;;;5091800;28;20437;-77
2022/12/19 13:37:25;;;;;;;38.00;31.50;;;;;;;;;;5091830;28;20915;-77
2022/12/19 13:40:01;;;;;;;36.13;28.27;;;;;;;;;;5092009;28;20486;-76
2022/12/19 13:45:16;;;;;;;36.67;28.40;;;;;;;;;;5092957;28;20727;-77
2022/12/19 13:47:44;;;;;;;42.83;29.63;;;;;;;;;;5099447;28;20988;-75
2022/12/19 13:50:17;;;;;;;38.77;29.10;;;;;;;;;;5100050;28;20465;-75
2022/12/19 13:52:48;;;;;;;37.80;27.53;;;;;;;;;;5092465;28;20541;-75
2022/12/19 13:55:17;;;;;;;33.60;27.57;;;;;;;;;;5091371;28;20510;-78
2022/12/19 13:57:47;;;;;;;37.20;29.43;;;;;;;;;;5091487;28;20466;-77
2022/12/19 14:00:17;;;;;;;33.67;26.83;;;;;;;;;;5091175;28;20478;-76
2022/12/19 14:02:47;;;;;;;47.27;36.43;;;;;;;;;;5090116;28;20567;-78
2022/12/19 14:05:25;;;;;;;38.40;30.57;;;;;;;;;;5090667;28;20971;-77
2022/12/19 14:07:52;;;;;;;40.93;32.23;;;;;;;;;;5090921;28;20485;-76
2022/12/19 14:10:23;;;;;;;42.07;30.23;;;;;;;;;;5090536;28;20438;-77
2022/12/19 14:15:37;;;;;;;39.63;29.17;;;;;;;;;;5090346;28;20479;-75
2022/12/19 14:18:09;;;;;;;33.97;28.47;;;;;;;;;;5090874;28;20512;-77
2022/12/19 14:20:37;;;;;;;37.37;29.57;;;;;;;;;;5090428;28;20429;-76
2022/12/19 14:23:05;;;;;;;36.83;27.57;;;;;;;;;;5090001;28;20444;-76
2022/12/19 14:25:35;;;;;;;37.53;28.10;;;;;;;;;;5090606;28;20822;-77
2022/12/19 14:28:04;;;;;;;29.97;25.97;;;;;;;;;;5090411;28;20440;-75
2022/12/19 14:30:33;;;;;;;32.73;26.43;;;;;;;;;;5090528;28;20452;-78
2022/12/19 14:33:05;;;;;;;32.73;26.77;;;;;;;;;;5089803;28;20446;-77
2022/12/19 14:35:34;;;;;;;16.17;13.20;;;;;;;;;;5090398;28;20456;-77
2022/12/19 14:38:02;;;;;;;15.60;14.00;;;;;;;;;;5090544;28;20797;-75